KASE

Aspen-Pitkin Co / Sardy Field Airport

Aspen, Colorado, USA
KASE 190025Z 1900/1924 36012G21KT 6SM -SN VCSH FEW017 FEW026 OVC040 FM190200 VRB03KT P6SM SCT010 BKN035 FM190900 VRB04KT P6SM SCT025 BKN050 FM191900 VRB04KT P6SM SCT070 BKN100
Issued Valid From Valid To
Jan-19 @ 00:25 UTC
(2 hours ago)
Jan-19 @ 00:00 UTC
(2 hours ago)
Jan-20 @ 00:00 UTC
(in 22 hours)
Expired Click to View Jan-19 @ 00:00 to Jan-19 @ 02:00
KASE 190025Z 1900/1924 36012G21KT 6SM -SN VCSH FEW017 FEW026 OVC040
Wind Visibility Clouds Conditions
360° at 12 knots
 Gusting to 21 knots
6 miles
  • Few at 1,700' AGL
  • Few at 2,600' AGL
  • Overcast at 4,000' AGL
  • Light Snow
From Jan-19 @ 02:00 to Jan-19 @ 09:00
FM190200 VRB03KT P6SM SCT010 BKN035
Wind Visibility Clouds
Variable at 3 knots Greater than 6 miles
  • Scattered at 1,000' AGL
  • Broken at 3,500' AGL
From Jan-19 @ 09:00 to Jan-19 @ 19:00
FM190900 VRB04KT P6SM SCT025 BKN050
Wind Visibility Clouds
Variable at 4 knots Greater than 6 miles
  • Scattered at 2,500' AGL
  • Broken at 5,000' AGL
From Jan-19 @ 19:00 to Jan-20 @ 00:00
FM191900 VRB04KT P6SM SCT070 BKN100
Wind Visibility Clouds
Variable at 4 knots Greater than 6 miles
  • Scattered at 7,000' AGL
  • Broken at 10,000' AGL
KASE 190025Z 1900/1924 36012G21KT 6SM -SN VCSH FEW017 FEW026 OVC040 FM190200 VRB03KT P6SM SCT010 BKN035 FM190900 VRB04KT P6SM SCT025 BKN050 FM191900 VRB04KT P6SM SCT070 BKN100
Issued Jan-19 @ 00:25 UTC
(2 hours ago)
Valid From Jan-19 @ 00:00 UTC
(2 hours ago)
Valid To Jan-20 @ 00:00 UTC
(in 22 hours)
Jan-19 @ 00:00 - Jan-19 @ 02:00
Wind Visibility
360° at 12 knots
 Gusting to 21 knots
6 miles
Clouds
  • Few at 1,700' AGL
  • Few at 2,600' AGL
  • Overcast at 4,000' AGL
Conditions
  • Light Snow
From Jan-19 @ 02:00 - Jan-19 @ 09:00
Wind Visibility
Variable at 3 knots Greater than 6 miles
Clouds
  • Scattered at 1,000' AGL
  • Broken at 3,500' AGL
From Jan-19 @ 09:00 - Jan-19 @ 19:00
Wind Visibility
Variable at 4 knots Greater than 6 miles
Clouds
  • Scattered at 2,500' AGL
  • Broken at 5,000' AGL
From Jan-19 @ 19:00 - Jan-20 @ 00:00
Wind Visibility
Variable at 4 knots Greater than 6 miles
Clouds
  • Scattered at 7,000' AGL
  • Broken at 10,000' AGL